Time;durP1;ratioP1;P1;durP2;ratioP2;P2;SDS_P1;SDS_P2;PMS_P1;PMS_P2;Temp;Humidity;BMP_temperature;BMP_pressure;BME280_temperature;BME280_humidity;BME280_pressure;Samples;Min_cycle;Max_cycle;Signal;HPM_P1;HPM_P2
2023/12/08 00:00:15;;;;;;;13.52;9.90;;;3.90;99.90;;;;;;5059972;28;20024;-36
2023/12/08 00:02:40;;;;;;;12.95;9.80;;;3.90;99.90;;;;;;5060183;28;20102;-37
2023/12/08 00:05:06;;;;;;;13.15;9.38;;;3.90;99.90;;;;;;5059520;28;20067;-36
2023/12/08 00:07:32;;;;;;;11.73;8.85;;;3.90;99.90;;;;;;5060357;28;20055;-36
2023/12/08 00:09:58;;;;;;;12.57;8.88;;;3.90;99.90;;;;;;5059995;28;20024;-36
2023/12/08 00:12:23;;;;;;;12.38;8.98;;;3.90;99.90;;;;;;5058276;28;20040;-37
2023/12/08 00:14:50;;;;;;;13.85;9.25;;;3.90;99.90;;;;;;5059853;28;20571;-36
2023/12/08 00:17:16;;;;;;;12.55;9.15;;;3.90;99.90;;;;;;5060676;28;20024;-36
2023/12/08 00:19:42;;;;;;;11.13;8.73;;;3.90;99.90;;;;;;5062927;28;20028;-36
2023/12/08 00:22:07;;;;;;;11.38;8.50;;;3.90;99.90;;;;;;5064579;28;20054;-36
2023/12/08 00:24:33;;;;;;;12.07;8.80;;;3.90;99.90;;;;;;5064826;28;20664;-36
2023/12/08 00:26:59;;;;;;;12.32;8.90;;;3.90;99.90;;;;;;5063631;28;20051;-36
2023/12/08 00:29:25;;;;;;;12.48;8.95;;;3.90;99.90;;;;;;5064439;28;20056;-37
2023/12/08 00:31:50;;;;;;;10.40;8.00;;;3.90;99.90;;;;;;5063537;28;20040;-37
2023/12/08 00:34:18;;;;;;;10.40;7.95;;;3.90;99.90;;;;;;5064640;28;20054;-36
2023/12/08 00:36:44;;;;;;;11.18;8.88;;;3.90;99.90;;;;;;5063994;28;20598;-39
2023/12/08 00:39:10;;;;;;;11.95;9.35;;;4.00;99.90;;;;;;5063859;28;20107;-37
2023/12/08 00:41:38;;;;;;;10.48;8.27;;;3.90;99.90;;;;;;5064700;28;20024;-36
2023/12/08 00:44:04;;;;;;;11.02;8.30;;;3.90;99.90;;;;;;5063989;28;20021;-37
2023/12/08 00:46:31;;;;;;;10.85;7.95;;;3.90;99.90;;;;;;5063901;28;20028;-37
2023/12/08 00:48:56;;;;;;;12.07;8.50;;;3.90;99.90;;;;;;5063113;28;20468;-37
2023/12/08 00:51:22;;;;;;;11.32;8.77;;;3.90;99.90;;;;;;5063893;28;20037;-37
2023/12/08 00:53:47;;;;;;;12.25;8.70;;;4.00;99.90;;;;;;5063265;28;20035;-37
2023/12/08 00:56:13;;;;;;;12.70;8.00;;;4.00;99.90;;;;;;5063839;28;20059;-36
2023/12/08 00:58:38;;;;;;;10.85;7.90;;;3.90;99.90;;;;;;5063987;28;20041;-38
2023/12/08 01:01:04;;;;;;;11.90;8.20;;;4.00;99.90;;;;;;5063025;28;20889;-36
2023/12/08 01:03:30;;;;;;;10.82;8.55;;;4.00;99.90;;;;;;5063482;28;20039;-37
2023/12/08 01:05:57;;;;;;;11.25;8.85;;;3.90;99.90;;;;;;5063253;28;20032;-37
2023/12/08 01:08:22;;;;;;;12.55;9.18;;;3.90;99.90;;;;;;5063066;28;20087;-37
2023/12/08 01:10:48;;;;;;;13.07;9.18;;;4.00;99.90;;;;;;5064356;28;20383;-37
2023/12/08 01:13:13;;;;;;;9.65;7.90;;;4.00;99.90;;;;;;5063720;28;20028;-36
2023/12/08 01:15:39;;;;;;;10.77;8.43;;;4.00;99.90;;;;;;5063367;28;20162;-37
2023/12/08 01:18:05;;;;;;;10.13;7.63;;;4.00;99.90;;;;;;5063797;28;20020;-36
2023/12/08 01:20:31;;;;;;;9.40;7.25;;;4.00;99.90;;;;;;5063750;28;20029;-37
2023/12/08 01:22:56;;;;;;;9.63;7.68;;;4.00;99.90;;;;;;5062063;28;20035;-36
2023/12/08 01:25:22;;;;;;;9.07;7.75;;;4.10;99.90;;;;;;5063411;28;20150;-36
2023/12/08 01:27:47;;;;;;;10.07;8.27;;;4.10;99.90;;;;;;5062653;28;20025;-37
2023/12/08 01:30:13;;;;;;;9.13;7.63;;;4.10;99.90;;;;;;5061427;28;20082;-36
2023/12/08 01:32:39;;;;;;;10.90;7.82;;;4.00;99.90;;;;;;5063362;28;20040;-36
2023/12/08 01:35:04;;;;;;;10.70;8.10;;;4.00;99.90;;;;;;5063660;28;20031;-37
2023/12/08 01:37:33;;;;;;;9.13;7.30;;;4.10;99.90;;;;;;5062830;28;20078;-37
2023/12/08 01:39:58;;;;;;;9.75;7.70;;;4.10;99.90;;;;;;5062493;28;20033;-37
2023/12/08 01:42:24;;;;;;;10.45;7.20;;;4.10;99.90;;;;;;5062712;28;20028;-37
2023/12/08 01:44:50;;;;;;;9.02;7.03;;;4.10;99.90;;;;;;5062450;28;20040;-37
2023/12/08 01:47:16;;;;;;;9.95;7.25;;;4.10;99.90;;;;;;5063836;28;20032;-39
2023/12/08 01:49:45;;;;;;;8.73;6.88;;;4.10;99.90;;;;;;5061367;28;20512;-38
2023/12/08 01:52:16;;;;;;;9.32;7.47;;;4.10;99.90;;;;;;5063143;28;20036;-37
2023/12/08 01:54:42;;;;;;;9.40;6.95;;;4.10;99.90;;;;;;5062520;28;20117;-37
2023/12/08 01:57:08;;;;;;;8.32;7.00;;;4.10;99.90;;;;;;5062655;28;20039;-36
2023/12/08 01:59:34;;;;;;;8.77;7.10;;;4.10;99.90;;;;;;5063546;28;20035;-38
2023/12/08 02:01:59;;;;;;;9.05;7.15;;;4.10;99.90;;;;;;5062198;28;20470;-36
2023/12/08 02:04:28;;;;;;;10.07;7.35;;;4.10;99.90;;;;;;5061985;28;20312;-36
2023/12/08 02:06:55;;;;;;;8.75;6.82;;;4.10;99.90;;;;;;5062197;28;20861;-37
2023/12/08 02:09:21;;;;;;;9.65;7.43;;;4.20;99.90;;;;;;5063118;28;20025;-37
2023/12/08 02:11:46;;;;;;;9.43;8.00;;;4.10;99.90;;;;;;5061212;28;20079;-38
2023/12/08 02:14:13;;;;;;;10.55;7.38;;;4.20;99.90;;;;;;5062312;28;20024;-36
2023/12/08 02:16:50;;;;;;;9.90;7.50;;;4.10;99.90;;;;;;5062015;28;20033;-36
2023/12/08 02:19:17;;;;;;;8.88;6.97;;;4.10;99.90;;;;;;5061601;28;20027;-36
2023/12/08 02:21:43;;;;;;;10.02;7.63;;;4.10;99.90;;;;;;5062861;28;20028;-36
2023/12/08 02:24:09;;;;;;;10.52;7.72;;;4.10;99.90;;;;;;5061869;28;20024;-37
2023/12/08 02:26:38;;;;;;;10.10;8.07;;;4.10;99.90;;;;;;5061570;28;20839;-37
2023/12/08 02:29:08;;;;;;;10.55;7.47;;;4.10;99.90;;;;;;5062554;28;20565;-36
2023/12/08 02:31:44;;;;;;;8.43;7.35;;;4.10;99.90;;;;;;5061528;28;20048;-37
2023/12/08 02:34:12;;;;;;;9.30;7.07;;;4.10;99.90;;;;;;5062075;28;20056;-36
2023/12/08 02:36:38;;;;;;;9.32;7.15;;;4.10;99.90;;;;;;5062273;28;20029;-38
2023/12/08 02:39:06;;;;;;;11.15;9.10;;;4.10;99.90;;;;;;5062096;28;20017;-37
2023/12/08 02:41:32;;;;;;;10.45;8.27;;;4.00;99.90;;;;;;5062036;28;20577;-36
2023/12/08 02:43:57;;;;;;;10.20;7.88;;;4.00;99.90;;;;;;5061698;28;20104;-35
2023/12/08 02:46:23;;;;;;;10.20;7.80;;;4.00;99.90;;;;;;5061856;28;20127;-35
2023/12/08 02:48:49;;;;;;;9.63;8.00;;;4.00;99.90;;;;;;5061462;28;20028;-37
2023/12/08 02:51:14;;;;;;;9.35;7.22;;;4.00;99.90;;;;;;5061478;28;20033;-37
2023/12/08 02:53:40;;;;;;;12.25;7.45;;;4.00;99.90;;;;;;5061569;28;20347;-36
2023/12/08 02:56:06;;;;;;;9.95;7.15;;;4.00;99.90;;;;;;5061148;28;20021;-37
2023/12/08 02:58:31;;;;;;;11.20;7.70;;;4.00;99.90;;;;;;5062126;28;20070;-37
2023/12/08 03:00:57;;;;;;;10.02;7.50;;;4.00;99.90;;;;;;5060097;28;20024;-37
2023/12/08 03:03:22;;;;;;;10.13;7.55;;;3.90;99.90;;;;;;5061670;28;20045;-36
2023/12/08 03:05:48;;;;;;;10.27;7.60;;;3.90;99.90;;;;;;5062170;28;20039;-37
2023/12/08 03:08:14;;;;;;;10.20;7.75;;;3.90;99.90;;;;;;5061347;28;20032;-36
2023/12/08 03:10:39;;;;;;;8.98;7.25;;;3.90;99.90;;;;;;5061418;28;20453;-37
2023/12/08 03:13:05;;;;;;;9.00;7.32;;;3.90;99.90;;;;;;5061389;28;20078;-37
2023/12/08 03:15:30;;;;;;;9.77;7.50;;;3.90;99.90;;;;;;5078476;28;20096;-37
2023/12/08 03:17:56;;;;;;;11.07;8.32;;;3.90;99.90;;;;;;5060630;28;20024;-36
2023/12/08 03:20:21;;;;;;;9.38;7.45;;;3.90;99.90;;;;;;5061845;28;20055;-36
2023/12/08 03:22:47;;;;;;;10.55;8.05;;;3.80;99.90;;;;;;5060058;28;20173;-37
2023/12/08 03:25:13;;;;;;;11.07;8.40;;;3.80;99.90;;;;;;5061088;28;20503;-36
2023/12/08 03:27:38;;;;;;;11.07;8.00;;;3.80;99.90;;;;;;5060784;28;20028;-36
2023/12/08 03:30:05;;;;;;;11.23;7.97;;;3.80;99.90;;;;;;5060901;28;20093;-37
2023/12/08 03:32:33;;;;;;;11.20;9.10;;;3.80;99.90;;;;;;5061199;28;20050;-37
2023/12/08 03:34:59;;;;;;;10.65;8.57;;;3.70;99.90;;;;;;5060216;28;20523;-37
2023/12/08 03:37:27;;;;;;;10.05;7.88;;;3.70;99.90;;;;;;5060942;28;20535;-38
2023/12/08 03:39:54;;;;;;;11.95;8.90;;;3.70;99.90;;;;;;5060275;28;20028;-37
2023/12/08 03:42:20;;;;;;;11.20;8.10;;;3.70;99.90;;;;;;5060547;28;20035;-37
2023/12/08 03:44:45;;;;;;;11.45;8.50;;;3.70;99.90;;;;;;5060776;28;20032;-37
2023/12/08 03:47:11;;;;;;;11.52;8.20;;;3.70;99.90;;;;;;5060425;28;20024;-36
2023/12/08 03:49:36;;;;;;;9.82;7.88;;;3.70;99.90;;;;;;5065736;28;20502;-37
2023/12/08 03:52:02;;;;;;;12.05;8.88;;;3.70;99.90;;;;;;5076576;28;20070;-38
2023/12/08 03:54:28;;;;;;;10.65;8.55;;;3.70;99.90;;;;;;5059952;28;20058;-38
2023/12/08 03:56:53;;;;;;;13.52;9.75;;;3.70;99.90;;;;;;5059877;28;20039;-38
2023/12/08 03:59:19;;;;;;;12.73;8.35;;;3.70;99.90;;;;;;5060721;28;20028;-38
2023/12/08 04:01:44;;;;;;;11.60;8.45;;;3.70;99.90;;;;;;5060839;28;20570;-37
2023/12/08 04:04:11;;;;;;;12.43;7.90;;;3.70;99.90;;;;;;5060019;28;20833;-37
2023/12/08 04:06:36;;;;;;;11.13;8.23;;;3.70;99.90;;;;;;5061504;28;20490;-36
2023/12/08 04:09:06;;;;;;;10.57;7.95;;;3.70;99.90;;;;;;5060264;28;20132;-37
2023/12/08 04:11:31;;;;;;;9.98;7.65;;;3.70;99.90;;;;;;5060508;28;20040;-37
2023/12/08 04:13:57;;;;;;;9.52;7.10;;;3.70;99.90;;;;;;5060417;28;20074;-37
2023/12/08 04:16:23;;;;;;;10.52;7.93;;;3.80;99.90;;;;;;5060654;28;20116;-36
2023/12/08 04:18:48;;;;;;;12.05;8.18;;;3.80;99.90;;;;;;5059896;28;20020;-37
2023/12/08 04:21:18;;;;;;;10.50;7.78;;;3.80;99.90;;;;;;5061048;28;20035;-37
2023/12/08 04:23:44;;;;;;;9.88;7.78;;;3.80;99.90;;;;;;5060559;28;20032;-37
2023/12/08 04:26:09;;;;;;;10.80;8.27;;;3.80;99.90;;;;;;5059507;28;20040;-39
2023/12/08 04:28:35;;;;;;;10.57;7.95;;;3.80;99.90;;;;;;5060103;28;20032;-37
2023/12/08 04:31:00;;;;;;;11.13;8.13;;;3.80;99.90;;;;;;5059523;28;20047;-36
2023/12/08 04:33:26;;;;;;;10.15;8.00;;;3.80;99.90;;;;;;5060593;28;20027;-37
2023/12/08 04:35:52;;;;;;;10.68;8.05;;;3.80;99.90;;;;;;5060711;28;20498;-37
2023/12/08 04:38:17;;;;;;;10.75;7.88;;;3.80;99.90;;;;;;5059530;28;20460;-38
2023/12/08 04:40:43;;;;;;;10.73;8.25;;;3.90;99.90;;;;;;5059354;28;20040;-37
2023/12/08 04:43:08;;;;;;;10.93;8.27;;;3.80;99.90;;;;;;5059879;28;20024;-37
2023/12/08 04:45:34;;;;;;;12.07;8.70;;;3.80;99.90;;;;;;5060185;28;20021;-37
2023/12/08 04:47:59;;;;;;;11.95;8.27;;;3.80;99.90;;;;;;5059444;28;20039;-37
2023/12/08 04:50:26;;;;;;;10.18;7.75;;;3.80;99.90;;;;;;5060087;28;20105;-37
2023/12/08 04:52:51;;;;;;;11.60;7.95;;;3.80;99.90;;;;;;5059583;28;20032;-37
2023/12/08 04:55:17;;;;;;;12.18;8.25;;;3.80;99.90;;;;;;5060999;28;20605;-38
2023/12/08 04:57:42;;;;;;;12.10;8.32;;;3.80;99.90;;;;;;5060511;28;20467;-36
2023/12/08 05:00:08;;;;;;;11.07;7.55;;;3.80;99.90;;;;;;5059641;28;20767;-36
2023/12/08 05:02:34;;;;;;;10.27;8.02;;;3.90;99.90;;;;;;5060453;28;20024;-36
2023/12/08 05:05:00;;;;;;;10.63;8.20;;;3.90;99.90;;;;;;5060923;28;20027;-37
2023/12/08 05:07:29;;;;;;;11.35;8.43;;;3.90;99.90;;;;;;5063512;28;20078;-37
2023/12/08 05:09:55;;;;;;;10.93;8.05;;;3.90;99.90;;;;;;5063481;28;20025;-36
2023/12/08 05:12:20;;;;;;;10.55;7.90;;;3.90;99.90;;;;;;5064415;28;20050;-36
2023/12/08 05:14:46;;;;;;;10.93;8.10;;;3.90;99.90;;;;;;5062819;28;20025;-40
2023/12/08 05:17:11;;;;;;;12.27;8.35;;;3.90;99.90;;;;;;5063350;28;20016;-36
2023/12/08 05:19:37;;;;;;;11.15;8.40;;;3.90;99.90;;;;;;5063858;28;20020;-38
2023/12/08 05:22:03;;;;;;;12.18;8.48;;;3.90;99.90;;;;;;5062742;28;20047;-37
2023/12/08 05:24:29;;;;;;;14.05;8.98;;;3.90;99.90;;;;;;5064253;28;20183;-37
2023/12/08 05:26:54;;;;;;;12.48;9.75;;;3.80;99.90;;;;;;5063088;28;20025;-37
2023/12/08 05:29:20;;;;;;;13.40;9.98;;;3.80;99.90;;;;;;5062939;28;20066;-37
2023/12/08 05:31:46;;;;;;;12.68;9.32;;;3.80;99.90;;;;;;5063070;28;20033;-37
2023/12/08 05:34:11;;;;;;;12.20;8.70;;;3.80;99.90;;;;;;5063606;28;20131;-37
2023/12/08 05:36:37;;;;;;;11.23;8.63;;;3.80;99.90;;;;;;5063621;28;20036;-37
2023/12/08 05:39:03;;;;;;;13.23;9.65;;;3.80;99.90;;;;;;5063262;28;20028;-37
2023/12/08 05:41:29;;;;;;;11.85;9.60;;;3.80;99.90;;;;;;5062951;28;20100;-38
2023/12/08 05:43:55;;;;;;;12.80;9.52;;;3.80;99.90;;;;;;5062881;28;20028;-37
2023/12/08 05:46:20;;;;;;;12.02;8.65;;;3.80;99.90;;;;;;5063170;28;20031;-36
2023/12/08 05:48:47;;;;;;;13.40;9.38;;;3.80;99.90;;;;;;5062196;28;20555;-37
2023/12/08 05:51:13;;;;;;;13.13;9.70;;;3.80;99.90;;;;;;5062761;28;20039;-36
2023/12/08 05:53:38;;;;;;;13.55;9.52;;;3.90;99.90;;;;;;5062346;28;20032;-37
2023/12/08 05:56:04;;;;;;;11.68;8.30;;;3.90;99.90;;;;;;5063203;28;20045;-37
2023/12/08 05:58:30;;;;;;;13.98;9.40;;;3.90;99.90;;;;;;5063938;28;20024;-36
2023/12/08 06:00:56;;;;;;;12.98;9.35;;;3.90;99.90;;;;;;5063012;28;20713;-36
2023/12/08 06:03:22;;;;;;;11.65;8.75;;;3.90;99.90;;;;;;5062331;28;20021;-42
2023/12/08 06:05:47;;;;;;;13.20;9.50;;;3.90;99.90;;;;;;5062947;28;20110;-37
2023/12/08 06:08:13;;;;;;;13.38;9.38;;;3.90;99.90;;;;;;5063017;28;20610;-37
2023/12/08 06:10:38;;;;;;;11.98;8.80;;;3.90;99.90;;;;;;5062936;28;20029;-38
2023/12/08 06:13:04;;;;;;;13.02;9.85;;;3.90;99.90;;;;;;5063247;28;20824;-37
2023/12/08 06:15:30;;;;;;;12.50;8.90;;;3.90;99.90;;;;;;5063151;28;20025;-40
2023/12/08 06:17:55;;;;;;;12.98;9.23;;;3.90;99.90;;;;;;5061253;28;20024;-36
2023/12/08 06:20:21;;;;;;;13.68;9.18;;;4.00;99.90;;;;;;5063095;28;20035;-47
2023/12/08 06:22:46;;;;;;;14.65;10.10;;;4.00;99.90;;;;;;5061831;28;20024;-37
2023/12/08 06:25:12;;;;;;;12.10;8.88;;;4.00;99.90;;;;;;5062239;28;20020;-37
2023/12/08 06:27:38;;;;;;;12.93;9.38;;;4.00;99.90;;;;;;5062673;28;20115;-36
2023/12/08 06:30:05;;;;;;;13.23;9.02;;;4.00;99.90;;;;;;5068022;28;20016;-37
2023/12/08 06:32:33;;;;;;;13.05;10.20;;;4.00;99.90;;;;;;5061691;28;20028;-36
2023/12/08 06:34:59;;;;;;;14.18;9.77;;;4.00;99.90;;;;;;5061613;28;20044;-36
2023/12/08 06:37:24;;;;;;;14.20;10.38;;;4.00;99.90;;;;;;5061733;28;20558;-36
2023/12/08 06:39:50;;;;;;;14.35;10.18;;;4.00;99.90;;;;;;5059243;28;20728;-36
2023/12/08 06:42:16;;;;;;;13.27;10.38;;;4.00;99.90;;;;;;5060736;28;20538;-37
2023/12/08 06:44:44;;;;;;;13.15;9.30;;;4.00;99.90;;;;;;5059769;28;20017;-36
2023/12/08 06:47:10;;;;;;;13.45;10.18;;;4.10;99.90;;;;;;5061032;28;20032;-36
2023/12/08 06:49:35;;;;;;;12.40;9.48;;;4.10;99.90;;;;;;5060102;28;20898;-36
2023/12/08 06:52:01;;;;;;;13.23;9.43;;;4.10;99.90;;;;;;5059516;28;20025;-36
2023/12/08 06:54:27;;;;;;;12.38;9.10;;;4.10;99.90;;;;;;5060513;28;20716;-36
2023/12/08 06:56:52;;;;;;;13.25;9.68;;;4.00;99.90;;;;;;5060004;28;20546;-36
2023/12/08 06:59:18;;;;;;;14.68;10.35;;;4.00;99.90;;;;;;5059568;28;20033;-37
2023/12/08 07:01:43;;;;;;;12.57;9.43;;;4.10;99.90;;;;;;5061211;28;20036;-37
2023/12/08 07:04:10;;;;;;;14.68;10.65;;;4.10;99.90;;;;;;5060546;28;20086;-36
2023/12/08 07:06:35;;;;;;;14.00;10.45;;;4.10;99.90;;;;;;5059977;28;20025;-37
2023/12/08 07:09:01;;;;;;;13.15;9.57;;;4.10;99.90;;;;;;5060297;28;20027;-42
2023/12/08 07:11:27;;;;;;;13.93;10.50;;;4.10;99.90;;;;;;5061412;28;20044;-37
2023/12/08 07:13:53;;;;;;;13.43;9.77;;;4.10;99.90;;;;;;5058691;28;20032;-37
2023/12/08 07:16:18;;;;;;;13.45;10.13;;;4.10;99.90;;;;;;5061003;28;20107;-38
2023/12/08 07:18:45;;;;;;;14.18;10.05;;;4.10;99.90;;;;;;5060254;28;20848;-37
2023/12/08 07:21:11;;;;;;;13.93;10.15;;;4.10;99.90;;;;;;5060191;28;20024;-36
2023/12/08 07:23:37;;;;;;;13.95;10.15;;;4.10;99.90;;;;;;5061207;28;20025;-37
2023/12/08 07:26:04;;;;;;;14.73;10.50;;;4.10;99.90;;;;;;5059598;28;20036;-36
2023/12/08 07:28:30;;;;;;;15.73;10.95;;;4.20;99.90;;;;;;5059236;28;20656;-35
2023/12/08 07:30:55;;;;;;;13.95;10.52;;;4.20;99.90;;;;;;5060234;28;20037;-37
2023/12/08 07:33:21;;;;;;;14.43;10.98;;;4.20;99.90;;;;;;5060775;28;20039;-38
2023/12/08 07:35:47;;;;;;;13.77;10.75;;;4.20;99.90;;;;;;5059455;28;20025;-35
2023/12/08 07:38:12;;;;;;;15.52;11.18;;;4.20;99.90;;;;;;5061171;28;20119;-37
2023/12/08 07:40:38;;;;;;;14.70;10.70;;;4.30;99.90;;;;;;5060948;28;20032;-37
2023/12/08 07:43:04;;;;;;;13.57;10.23;;;4.30;99.90;;;;;;5060371;28;20116;-37
2023/12/08 07:45:29;;;;;;;14.98;10.70;;;4.30;99.90;;;;;;5061512;28;20079;-36
2023/12/08 07:47:55;;;;;;;14.57;10.15;;;4.30;99.90;;;;;;5059968;28;20032;-37
2023/12/08 07:50:21;;;;;;;14.93;10.15;;;4.30;99.90;;;;;;5060187;28;20052;-36
2023/12/08 07:52:47;;;;;;;14.43;10.48;;;4.30;99.90;;;;;;5060660;28;20151;-36
2023/12/08 07:55:13;;;;;;;15.85;10.93;;;4.30;99.90;;;;;;5059501;28;20047;-37
2023/12/08 07:57:38;;;;;;;14.02;9.90;;;4.30;99.90;;;;;;5061477;28;20052;-37
2023/12/08 08:00:06;;;;;;;14.82;10.07;;;4.40;99.90;;;;;;5060938;28;20418;-37
2023/12/08 08:02:34;;;;;;;14.23;10.27;;;4.30;99.90;;;;;;5060674;28;20056;-37
2023/12/08 08:05:00;;;;;;;14.27;10.27;;;4.30;99.90;;;;;;5060803;28;20035;-37
2023/12/08 08:07:25;;;;;;;15.55;9.80;;;4.40;99.90;;;;;;5060089;28;20367;-37
2023/12/08 08:09:51;;;;;;;13.70;10.18;;;4.40;99.90;;;;;;5059829;28;20466;-37
2023/12/08 08:12:17;;;;;;;14.45;10.70;;;4.40;99.90;;;;;;5061109;28;20040;-37
2023/12/08 08:14:43;;;;;;;15.43;10.25;;;4.40;99.90;;;;;;5041307;28;20098;-38
2023/12/08 08:17:08;;;;;;;16.63;10.50;;;4.40;99.90;;;;;;5054404;28;20151;-37
2023/12/08 08:19:34;;;;;;;15.60;10.13;;;4.50;99.90;;;;;;5061210;28;20032;-38
2023/12/08 08:22:00;;;;;;;17.40;11.40;;;4.50;99.90;;;;;;5059920;28;20025;-37
2023/12/08 08:24:26;;;;;;;14.90;10.40;;;4.50;99.90;;;;;;5059835;28;20025;-37
2023/12/08 08:26:52;;;;;;;15.25;10.20;;;4.50;99.90;;;;;;5060453;28;20029;-36
2023/12/08 08:29:17;;;;;;;15.77;10.73;;;4.50;99.90;;;;;;5060780;28;20032;-36
2023/12/08 08:31:43;;;;;;;15.60;10.02;;;4.50;99.90;;;;;;5059673;28;20060;-36
2023/12/08 08:34:09;;;;;;;16.05;10.20;;;4.50;99.90;;;;;;5060800;28;20055;-37
2023/12/08 08:36:34;;;;;;;15.55;9.65;;;4.50;99.90;;;;;;5060762;28;20028;-40
2023/12/08 08:39:00;;;;;;;16.55;10.68;;;4.60;99.90;;;;;;5059324;28;20612;-36
2023/12/08 08:41:26;;;;;;;15.50;10.10;;;4.60;99.90;;;;;;5064501;28;20056;-37
2023/12/08 08:43:51;;;;;;;14.20;9.90;;;4.60;99.90;;;;;;5064132;28;20398;-36
2023/12/08 08:46:18;;;;;;;13.77;9.90;;;4.60;99.90;;;;;;5064126;28;20020;-36
2023/12/08 08:48:43;;;;;;;13.63;8.93;;;4.60;99.90;;;;;;5064624;28;20032;-36
2023/12/08 08:51:10;;;;;;;15.43;10.52;;;4.60;99.90;;;;;;5064664;28;20078;-36
2023/12/08 08:53:36;;;;;;;14.50;10.05;;;4.60;99.90;;;;;;5063518;28;20051;-36
2023/12/08 08:56:02;;;;;;;15.02;9.70;;;4.60;99.90;;;;;;5063253;28;20032;-37
2023/12/08 08:58:28;;;;;;;13.05;9.20;;;4.70;99.90;;;;;;5063180;28;20052;-36
2023/12/08 09:00:54;;;;;;;12.27;8.25;;;4.60;99.90;;;;;;5063764;28;20802;-36
2023/12/08 09:03:20;;;;;;;12.00;8.52;;;4.70;99.90;;;;;;5063878;28;20083;-37
2023/12/08 09:05:46;;;;;;;12.95;8.85;;;4.70;99.90;;;;;;5062785;28;20516;-37
2023/12/08 09:08:12;;;;;;;12.20;8.23;;;4.70;99.90;;;;;;5063566;28;20082;-37
2023/12/08 09:10:38;;;;;;;13.57;8.75;;;4.70;99.90;;;;;;5064131;28;20032;-38
2023/12/08 09:13:04;;;;;;;13.02;9.20;;;4.70;99.90;;;;;;5062819;28;20039;-37
2023/12/08 09:15:30;;;;;;;12.20;8.63;;;4.70;99.90;;;;;;5063839;28;20032;-37
2023/12/08 09:17:59;;;;;;;12.10;8.30;;;4.80;99.90;;;;;;5063499;28;20017;-36
2023/12/08 09:20:24;;;;;;;12.50;8.35;;;4.80;99.90;;;;;;5062778;28;20631;-36
2023/12/08 09:22:51;;;;;;;11.70;8.02;;;4.80;99.90;;;;;;5063250;28;20033;-37
2023/12/08 09:25:18;;;;;;;13.27;9.00;;;4.80;99.90;;;;;;5064420;28;20329;-37
2023/12/08 09:27:44;;;;;;;11.27;8.68;;;4.80;99.90;;;;;;5063331;28;20447;-37
2023/12/08 09:30:10;;;;;;;15.07;8.38;;;4.90;99.90;;;;;;5062416;28;20021;-37
2023/12/08 09:32:35;;;;;;;13.05;8.13;;;4.90;99.90;;;;;;5063464;28;20036;-37
2023/12/08 09:35:01;;;;;;;9.68;7.53;;;4.90;99.90;;;;;;5061773;28;20585;-37
2023/12/08 09:37:26;;;;;;;11.20;8.05;;;4.90;99.90;;;;;;5061980;28;20150;-37
2023/12/08 09:39:52;;;;;;;10.18;7.97;;;4.90;99.90;;;;;;5062601;28;20020;-38
2023/12/08 09:42:52;;;;;;;11.57;8.43;;;4.90;99.90;;;;;;5063316;28;20035;-36
2023/12/08 09:45:20;;;;;;;11.90;8.48;;;4.90;99.90;;;;;;5063086;28;20021;-38
2023/12/08 09:47:49;;;;;;;10.02;7.53;;;5.00;99.90;;;;;;5062133;28;20112;-37
2023/12/08 09:50:18;;;;;;;13.23;8.38;;;5.00;99.90;;;;;;5062313;28;20129;-36
2023/12/08 09:52:44;;;;;;;13.15;8.70;;;5.00;99.90;;;;;;5062013;28;20040;-37
2023/12/08 09:55:11;;;;;;;12.20;8.48;;;5.00;99.90;;;;;;5062592;28;20025;-36
2023/12/08 09:57:39;;;;;;;11.50;8.77;;;5.00;99.90;;;;;;5063344;28;20073;-36
2023/12/08 10:00:11;;;;;;;14.48;8.98;;;5.00;99.90;;;;;;5062488;28;20021;-36
2023/12/08 10:02:37;;;;;;;12.30;8.95;;;5.10;99.90;;;;;;5061582;28;20512;-36
2023/12/08 10:05:02;;;;;;;15.82;10.13;;;5.10;99.90;;;;;;5061600;28;20025;-39
2023/12/08 10:07:31;;;;;;;13.55;9.05;;;5.10;99.90;;;;;;5063206;28;20517;-36
2023/12/08 10:10:01;;;;;;;18.08;10.63;;;5.10;99.90;;;;;;5061692;28;20013;-38
2023/12/08 10:12:27;;;;;;;16.90;10.05;;;5.20;99.90;;;;;;5063235;28;20067;-38
2023/12/08 10:14:57;;;;;;;17.40;9.95;;;5.20;99.90;;;;;;5062469;28;20444;-37
2023/12/08 10:17:24;;;;;;;15.23;9.63;;;5.20;99.90;;;;;;5062363;28;20040;-37
2023/12/08 10:19:52;;;;;;;17.35;11.13;;;5.20;99.90;;;;;;5062012;28;20040;-37
2023/12/08 10:22:19;;;;;;;16.85;10.80;;;5.20;99.90;;;;;;5062270;28;20094;-38
2023/12/08 10:24:45;;;;;;;19.13;11.38;;;5.20;99.90;;;;;;5062499;28;20021;-45
2023/12/08 10:27:11;;;;;;;16.90;10.80;;;5.30;99.90;;;;;;5062693;28;20081;-37
2023/12/08 10:29:37;;;;;;;18.17;11.25;;;5.30;99.90;;;;;;5063231;28;20020;-36
2023/12/08 10:32:06;;;;;;;18.48;11.73;;;5.30;99.90;;;;;;5062183;28;20168;-41
2023/12/08 10:34:32;;;;;;;19.92;12.48;;;5.30;99.90;;;;;;5062819;28;20149;-37
2023/12/08 10:37:00;;;;;;;21.38;13.07;;;5.40;99.90;;;;;;5062086;28;20104;-38
2023/12/08 10:39:26;;;;;;;22.40;14.00;;;5.40;99.90;;;;;;5063625;28;20103;-38
2023/12/08 10:41:52;;;;;;;19.77;12.02;;;5.40;99.90;;;;;;5062234;28;20108;-38
2023/12/08 10:44:19;;;;;;;22.27;14.05;;;5.50;99.90;;;;;;5062121;28;20017;-37
2023/12/08 10:46:48;;;;;;;21.50;12.57;;;5.50;99.90;;;;;;5062117;28;20837;-38
2023/12/08 10:49:21;;;;;;;24.00;13.50;;;5.50;99.90;;;;;;5062352;28;20447;-43
2023/12/08 10:51:48;;;;;;;27.38;13.55;;;5.50;99.90;;;;;;5061130;28;20484;-38
2023/12/08 10:54:16;;;;;;;20.08;12.35;;;5.60;99.90;;;;;;5062490;28;20034;-37
2023/12/08 10:56:44;;;;;;;21.00;12.80;;;5.60;99.90;;;;;;5061651;28;20060;-37
2023/12/08 10:59:14;;;;;;;23.95;13.88;;;5.60;99.90;;;;;;5060454;28;20149;-37
2023/12/08 11:01:41;;;;;;;22.17;13.70;;;5.60;99.90;;;;;;5061404;28;20040;-37
2023/12/08 11:04:10;;;;;;;19.75;13.65;;;5.60;99.90;;;;;;5061251;28;20498;-37
2023/12/08 11:06:42;;;;;;;25.63;15.20;;;5.70;99.90;;;;;;5061162;28;20017;-38
2023/12/08 11:09:12;;;;;;;23.30;14.20;;;5.70;99.90;;;;;;5060881;28;20135;-37
2023/12/08 11:11:45;;;;;;;25.90;14.45;;;5.70;99.90;;;;;;5061833;28;20040;-38
2023/12/08 11:14:24;;;;;;;25.63;14.25;;;5.70;99.90;;;;;;5060723;28;20021;-37
2023/12/08 11:16:57;;;;;;;26.98;14.18;;;5.80;99.90;;;;;;5060804;28;20101;-38
2023/12/08 11:19:24;;;;;;;22.88;13.05;;;5.80;99.90;;;;;;5060860;28;20020;-37
2023/12/08 11:21:50;;;;;;;22.30;13.68;;;5.80;99.90;;;;;;5060377;28;20039;-38
2023/12/08 11:24:16;;;;;;;24.77;14.50;;;5.80;99.90;;;;;;5061515;28;20112;-38
2023/12/08 11:27:12;;;;;;;26.15;14.40;;;5.90;99.90;;;;;;5061108;28;20128;-35
2023/12/08 11:29:50;;;;;;;25.95;14.35;;;5.90;99.90;;;;;;5053141;28;20125;-38
2023/12/08 11:32:27;;;;;;;22.90;13.10;;;5.90;99.90;;;;;;5060763;28;20033;-37
2023/12/08 11:35:00;;;;;;;28.75;14.75;;;6.00;99.90;;;;;;5059964;28;20032;-38
2023/12/08 11:37:29;;;;;;;27.30;15.25;;;6.00;99.90;;;;;;5060703;28;20028;-37
2023/12/08 11:40:07;;;;;;;27.58;15.20;;;6.00;99.90;;;;;;5060322;28;20013;-37
2023/12/08 11:42:33;;;;;;;27.48;15.43;;;6.10;99.90;;;;;;5060557;28;20498;-38
2023/12/08 11:44:59;;;;;;;30.92;15.85;;;6.10;99.90;;;;;;5057416;28;20017;-36
2023/12/08 11:47:26;;;;;;;30.25;15.15;;;6.10;99.90;;;;;;5060384;28;20028;-36
2023/12/08 11:49:54;;;;;;;27.77;15.45;;;6.20;99.90;;;;;;5060010;28;20056;-36
2023/12/08 11:52:25;;;;;;;27.88;15.18;;;6.20;99.90;;;;;;5062642;28;20745;-39
2023/12/08 11:55:16;;;;;;;26.13;15.00;;;6.20;99.90;;;;;;5059867;28;20024;-37
2023/12/08 11:58:06;;;;;;;27.17;14.75;;;6.30;99.90;;;;;;5060698;28;20550;-37
2023/12/08 12:00:37;;;;;;;28.58;15.70;;;6.30;99.90;;;;;;5060407;28;20110;-36
2023/12/08 12:03:04;;;;;;;26.05;14.95;;;6.30;99.90;;;;;;5059833;28;20100;-37
2023/12/08 12:05:30;;;;;;;26.15;16.13;;;6.30;99.90;;;;;;5060407;28;20466;-37
2023/12/08 12:07:57;;;;;;;28.38;16.58;;;6.30;99.90;;;;;;5060735;28;20021;-38
2023/12/08 12:10:33;;;;;;;30.63;15.23;;;6.40;99.90;;;;;;5060175;28;20024;-38
2023/12/08 12:13:08;;;;;;;28.05;14.93;;;6.40;99.90;;;;;;5059922;28;20039;-36
2023/12/08 12:15:37;;;;;;;29.35;15.50;;;6.40;99.90;;;;;;5059119;28;20020;-39
2023/12/08 12:18:04;;;;;;;29.52;15.85;;;6.40;99.90;;;;;;5060375;28;20017;-36
2023/12/08 12:20:34;;;;;;;30.08;16.60;;;6.50;99.90;;;;;;5061165;28;20033;-36
2023/12/08 12:23:00;;;;;;;27.58;15.27;;;6.50;99.90;;;;;;5040216;28;20108;-36
2023/12/08 12:25:26;;;;;;;31.23;16.67;;;6.50;99.90;;;;;;5054861;28;20025;-36
2023/12/08 12:27:53;;;;;;;33.05;16.83;;;6.50;99.90;;;;;;5060012;28;20103;-36
2023/12/08 12:30:20;;;;;;;28.08;15.80;;;6.60;99.90;;;;;;5059523;28;20143;-36
2023/12/08 12:32:47;;;;;;;27.17;16.90;;;6.60;99.90;;;;;;5059932;28;20032;-36
2023/12/08 12:35:16;;;;;;;31.30;15.88;;;6.60;99.90;;;;;;5059391;28;20020;-36
2023/12/08 12:37:42;;;;;;;31.10;16.27;;;6.60;99.90;;;;;;5059801;28;20647;-37
2023/12/08 12:40:10;;;;;;;31.58;15.07;;;6.70;99.90;;;;;;5059793;28;20012;-35
2023/12/08 12:42:43;;;;;;;28.23;15.05;;;6.70;99.90;;;;;;5060428;28;20111;-36